sensor_id;sensor_type;location;lat;lon;timestamp;temperature;humidity
69731;SHT31;56996;48.138;11.538;2022-10-16T00:01:31;14.51;80.93
69731;SHT31;56996;48.138;11.538;2022-10-16T00:03:58;14.47;81.02
69731;SHT31;56996;48.138;11.538;2022-10-16T00:06:27;14.45;81.10
69731;SHT31;56996;48.138;11.538;2022-10-16T00:08:55;14.42;81.19
69731;SHT31;56996;48.138;11.538;2022-10-16T00:13:56;14.40;81.28
69731;SHT31;56996;48.138;11.538;2022-10-16T00:16:26;14.38;81.31
69731;SHT31;56996;48.138;11.538;2022-10-16T00:18:54;14.36;81.38
69731;SHT31;56996;48.138;11.538;2022-10-16T00:21:22;14.34;81.43
69731;SHT31;56996;48.138;11.538;2022-10-16T00:23:52;14.33;81.49
69731;SHT31;56996;48.138;11.538;2022-10-16T00:26:26;14.31;81.51
69731;SHT31;56996;48.138;11.538;2022-10-16T00:28:54;14.30;81.57
69731;SHT31;56996;48.138;11.538;2022-10-16T00:31:21;14.28;81.59
69731;SHT31;56996;48.138;11.538;2022-10-16T00:33:49;14.27;81.59
69731;SHT31;56996;48.138;11.538;2022-10-16T00:36:20;14.24;81.63
69731;SHT31;56996;48.138;11.538;2022-10-16T00:38:53;14.21;81.68
69731;SHT31;56996;48.138;11.538;2022-10-16T00:41:23;14.19;81.70
69731;SHT31;56996;48.138;11.538;2022-10-16T00:43:52;14.18;81.72
69731;SHT31;56996;48.138;11.538;2022-10-16T00:46:40;14.16;81.76
69731;SHT31;56996;48.138;11.538;2022-10-16T00:49:09;14.14;81.80
69731;SHT31;56996;48.138;11.538;2022-10-16T00:51:41;14.11;81.80
69731;SHT31;56996;48.138;11.538;2022-10-16T00:54:14;14.10;81.85
69731;SHT31;56996;48.138;11.538;2022-10-16T00:56:46;14.09;81.90
69731;SHT31;56996;48.138;11.538;2022-10-16T00:59:20;14.08;81.90
69731;SHT31;56996;48.138;11.538;2022-10-16T01:01:52;14.06;81.96
69731;SHT31;56996;48.138;11.538;2022-10-16T01:04:20;14.07;82.02
69731;SHT31;56996;48.138;11.538;2022-10-16T01:06:54;14.07;82.10
69731;SHT31;56996;48.138;11.538;2022-10-16T01:09:46;14.08;82.10
69731;SHT31;56996;48.138;11.538;2022-10-16T01:12:23;14.09;82.10
69731;SHT31;56996;48.138;11.538;2022-10-16T01:15:10;14.09;82.14
69731;SHT31;56996;48.138;11.538;2022-10-16T01:17:57;14.10;82.14
69731;SHT31;56996;48.138;11.538;2022-10-16T01:20:33;14.09;82.22
69731;SHT31;56996;48.138;11.538;2022-10-16T01:31:48;14.10;82.24
69731;SHT31;56996;48.138;11.538;2022-10-16T01:37:04;14.11;82.18
69731;SHT31;56996;48.138;11.538;2022-10-16T01:39:36;14.14;82.15
69731;SHT31;56996;48.138;11.538;2022-10-16T01:44:41;14.12;82.11
69731;SHT31;56996;48.138;11.538;2022-10-16T01:47:09;14.14;82.10
69731;SHT31;56996;48.138;11.538;2022-10-16T01:49:39;14.14;82.10
69731;SHT31;56996;48.138;11.538;2022-10-16T01:52:15;14.14;82.10
69731;SHT31;56996;48.138;11.538;2022-10-16T01:54:47;14.13;82.10
69731;SHT31;56996;48.138;11.538;2022-10-16T01:57:19;14.12;82.04
69731;SHT31;56996;48.138;11.538;2022-10-16T01:59:48;14.13;82.00
69731;SHT31;56996;48.138;11.538;2022-10-16T02:02:21;14.11;81.99
69731;SHT31;56996;48.138;11.538;2022-10-16T02:04:53;14.13;82.00
69731;SHT31;56996;48.138;11.538;2022-10-16T02:07:25;14.13;81.96
69731;SHT31;56996;48.138;11.538;2022-10-16T02:09:52;14.13;81.90
69731;SHT31;56996;48.138;11.538;2022-10-16T02:12:26;14.14;81.83
69731;SHT31;56996;48.138;11.538;2022-10-16T02:14:56;14.16;81.78
69731;SHT31;56996;48.138;11.538;2022-10-16T02:17:24;14.15;81.72
69731;SHT31;56996;48.138;11.538;2022-10-16T02:19:52;14.15;81.63
69731;SHT31;56996;48.138;11.538;2022-10-16T02:22:34;14.17;81.59
69731;SHT31;56996;48.138;11.538;2022-10-16T02:28:08;14.17;81.50
69731;SHT31;56996;48.138;11.538;2022-10-16T02:30:52;14.15;81.47
69731;SHT31;56996;48.138;11.538;2022-10-16T02:33:25;14.15;81.42
69731;SHT31;56996;48.138;11.538;2022-10-16T02:35:53;14.15;81.40
69731;SHT31;56996;48.138;11.538;2022-10-16T02:38:21;14.15;81.38
69731;SHT31;56996;48.138;11.538;2022-10-16T02:40:50;14.14;81.37
69731;SHT31;56996;48.138;11.538;2022-10-16T02:43:17;14.15;81.30
69731;SHT31;56996;48.138;11.538;2022-10-16T02:45:44;14.13;81.27
69731;SHT31;56996;48.138;11.538;2022-10-16T02:48:10;14.12;81.24
69731;SHT31;56996;48.138;11.538;2022-10-16T02:50:37;14.10;81.29
69731;SHT31;56996;48.138;11.538;2022-10-16T02:53:04;14.11;81.28
69731;SHT31;56996;48.138;11.538;2022-10-16T02:55:30;14.09;81.28
69731;SHT31;56996;48.138;11.538;2022-10-16T02:57:57;14.08;81.17
69731;SHT31;56996;48.138;11.538;2022-10-16T03:00:23;14.05;81.17
69731;SHT31;56996;48.138;11.538;2022-10-16T03:02:50;14.04;81.06
69731;SHT31;56996;48.138;11.538;2022-10-16T03:05:17;14.04;81.04
69731;SHT31;56996;48.138;11.538;2022-10-16T03:07:43;14.03;81.03
69731;SHT31;56996;48.138;11.538;2022-10-16T03:10:10;14.03;81.07
69731;SHT31;56996;48.138;11.538;2022-10-16T03:12:37;14.02;81.10
69731;SHT31;56996;48.138;11.538;2022-10-16T03:15:03;14.01;81.03
69731;SHT31;56996;48.138;11.538;2022-10-16T03:17:31;13.99;81.03
69731;SHT31;56996;48.138;11.538;2022-10-16T03:19:58;13.99;81.09
69731;SHT31;56996;48.138;11.538;2022-10-16T03:22:24;13.97;81.08
69731;SHT31;56996;48.138;11.538;2022-10-16T03:24:51;13.95;81.10
69731;SHT31;56996;48.138;11.538;2022-10-16T03:27:18;13.93;81.11
69731;SHT31;56996;48.138;11.538;2022-10-16T03:29:44;13.93;81.08
69731;SHT31;56996;48.138;11.538;2022-10-16T03:32:11;13.92;81.10
69731;SHT31;56996;48.138;11.538;2022-10-16T03:34:38;13.92;81.10
69731;SHT31;56996;48.138;11.538;2022-10-16T03:37:04;13.92;81.11
69731;SHT31;56996;48.138;11.538;2022-10-16T03:39:31;13.92;81.10
69731;SHT31;56996;48.138;11.538;2022-10-16T03:41:57;13.93;81.09
69731;SHT31;56996;48.138;11.538;2022-10-16T03:44:24;13.94;81.02
69731;SHT31;56996;48.138;11.538;2022-10-16T03:46:51;13.96;81.00
69731;SHT31;56996;48.138;11.538;2022-10-16T03:49:17;13.99;80.88
69731;SHT31;56996;48.138;11.538;2022-10-16T03:51:44;14.02;80.76
69731;SHT31;56996;48.138;11.538;2022-10-16T03:54:10;14.06;80.67
69731;SHT31;56996;48.138;11.538;2022-10-16T03:56:37;14.09;80.53
69731;SHT31;56996;48.138;11.538;2022-10-16T03:59:04;14.13;80.43
69731;SHT31;56996;48.138;11.538;2022-10-16T04:01:31;14.17;80.31
69731;SHT31;56996;48.138;11.538;2022-10-16T04:03:57;14.20;80.20
69731;SHT31;56996;48.138;11.538;2022-10-16T04:06:24;14.24;80.10
69731;SHT31;56996;48.138;11.538;2022-10-16T04:08:51;14.27;80.02
69731;SHT31;56996;48.138;11.538;2022-10-16T04:11:17;14.30;80.01
69731;SHT31;56996;48.138;11.538;2022-10-16T04:13:44;14.33;79.98
69731;SHT31;56996;48.138;11.538;2022-10-16T04:16:10;14.35;79.90
69731;SHT31;56996;48.138;11.538;2022-10-16T04:18:37;14.39;79.81
69731;SHT31;56996;48.138;11.538;2022-10-16T04:21:04;14.40;79.77
69731;SHT31;56996;48.138;11.538;2022-10-16T04:23:32;14.41;79.67
69731;SHT31;56996;48.138;11.538;2022-10-16T04:25:59;14.44;79.59
69731;SHT31;56996;48.138;11.538;2022-10-16T04:28:27;14.44;79.53
69731;SHT31;56996;48.138;11.538;2022-10-16T04:30:54;14.44;79.63
69731;SHT31;56996;48.138;11.538;2022-10-16T04:33:21;14.44;79.53
69731;SHT31;56996;48.138;11.538;2022-10-16T04:35:47;14.45;79.40
69731;SHT31;56996;48.138;11.538;2022-10-16T04:38:14;14.45;79.44
69731;SHT31;56996;48.138;11.538;2022-10-16T04:40:41;14.45;79.37
69731;SHT31;56996;48.138;11.538;2022-10-16T04:43:09;14.47;79.34
69731;SHT31;56996;48.138;11.538;2022-10-16T04:45:35;14.48;79.23
69731;SHT31;56996;48.138;11.538;2022-10-16T04:48:02;14.48;79.18
69731;SHT31;56996;48.138;11.538;2022-10-16T04:50:29;14.51;78.98
69731;SHT31;56996;48.138;11.538;2022-10-16T04:53:05;14.51;78.90
69731;SHT31;56996;48.138;11.538;2022-10-16T04:55:33;14.54;78.90
69731;SHT31;56996;48.138;11.538;2022-10-16T04:58:00;14.57;78.84
69731;SHT31;56996;48.138;11.538;2022-10-16T05:00:27;14.59;78.80
69731;SHT31;56996;48.138;11.538;2022-10-16T05:02:53;14.61;78.73
69731;SHT31;56996;48.138;11.538;2022-10-16T05:05:20;14.62;78.64
69731;SHT31;56996;48.138;11.538;2022-10-16T05:07:47;14.61;78.58
69731;SHT31;56996;48.138;11.538;2022-10-16T05:10:16;14.62;78.58
69731;SHT31;56996;48.138;11.538;2022-10-16T05:12:43;14.61;78.60
69731;SHT31;56996;48.138;11.538;2022-10-16T05:15:10;14.61;78.62
69731;SHT31;56996;48.138;11.538;2022-10-16T05:17:37;14.61;78.61
69731;SHT31;56996;48.138;11.538;2022-10-16T05:20:10;14.60;78.53
69731;SHT31;56996;48.138;11.538;2022-10-16T05:22:38;14.60;78.51
69731;SHT31;56996;48.138;11.538;2022-10-16T05:25:04;14.61;78.50
69731;SHT31;56996;48.138;11.538;2022-10-16T05:27:31;14.61;78.45
69731;SHT31;56996;48.138;11.538;2022-10-16T05:29:58;14.60;78.48
69731;SHT31;56996;48.138;11.538;2022-10-16T05:32:25;14.61;78.40
69731;SHT31;56996;48.138;11.538;2022-10-16T05:34:51;14.62;78.45
69731;SHT31;56996;48.138;11.538;2022-10-16T05:37:18;14.62;78.43
69731;SHT31;56996;48.138;11.538;2022-10-16T05:39:44;14.63;78.34
69731;SHT31;56996;48.138;11.538;2022-10-16T05:42:11;14.63;78.30
69731;SHT31;56996;48.138;11.538;2022-10-16T05:44:38;14.64;78.37
69731;SHT31;56996;48.138;11.538;2022-10-16T05:47:05;14.66;78.40
69731;SHT31;56996;48.138;11.538;2022-10-16T05:49:31;14.68;78.40
69731;SHT31;56996;48.138;11.538;2022-10-16T05:52:01;14.69;78.31
69731;SHT31;56996;48.138;11.538;2022-10-16T05:54:27;14.69;78.31
69731;SHT31;56996;48.138;11.538;2022-10-16T05:56:54;14.69;78.23
69731;SHT31;56996;48.138;11.538;2022-10-16T05:59:20;14.70;78.29
69731;SHT31;56996;48.138;11.538;2022-10-16T06:01:47;14.71;78.18
69731;SHT31;56996;48.138;11.538;2022-10-16T06:04:14;14.72;78.11
69731;SHT31;56996;48.138;11.538;2022-10-16T06:06:40;14.71;78.10
69731;SHT31;56996;48.138;11.538;2022-10-16T06:09:07;14.73;78.14
69731;SHT31;56996;48.138;11.538;2022-10-16T06:11:33;14.72;78.10
69731;SHT31;56996;48.138;11.538;2022-10-16T06:14:01;14.73;77.98
69731;SHT31;56996;48.138;11.538;2022-10-16T06:16:33;14.74;77.81
69731;SHT31;56996;48.138;11.538;2022-10-16T06:19:01;14.77;77.84
69731;SHT31;56996;48.138;11.538;2022-10-16T06:21:30;14.80;77.80
69731;SHT31;56996;48.138;11.538;2022-10-16T06:23:57;14.82;77.61
69731;SHT31;56996;48.138;11.538;2022-10-16T06:26:25;14.86;77.47
69731;SHT31;56996;48.138;11.538;2022-10-16T06:28:56;14.89;77.40
69731;SHT31;56996;48.138;11.538;2022-10-16T06:31:25;14.93;77.39
69731;SHT31;56996;48.138;11.538;2022-10-16T06:33:56;14.97;77.40
69731;SHT31;56996;48.138;11.538;2022-10-16T06:36:24;15.00;77.33
69731;SHT31;56996;48.138;11.538;2022-10-16T06:38:52;15.01;77.37
69731;SHT31;56996;48.138;11.538;2022-10-16T06:41:20;15.05;77.36
69731;SHT31;56996;48.138;11.538;2022-10-16T06:43:49;15.10;77.33
69731;SHT31;56996;48.138;11.538;2022-10-16T06:46:17;15.13;77.39
69731;SHT31;56996;48.138;11.538;2022-10-16T06:48:47;15.17;77.35
69731;SHT31;56996;48.138;11.538;2022-10-16T06:51:14;15.25;77.18
69731;SHT31;56996;48.138;11.538;2022-10-16T06:53:45;15.28;77.06
69731;SHT31;56996;48.138;11.538;2022-10-16T06:56:33;15.32;76.89
69731;SHT31;56996;48.138;11.538;2022-10-16T06:59:00;15.34;76.79
69731;SHT31;56996;48.138;11.538;2022-10-16T07:01:28;15.38;76.75
69731;SHT31;56996;48.138;11.538;2022-10-16T07:03:56;15.41;76.70
69731;SHT31;56996;48.138;11.538;2022-10-16T07:06:24;15.43;76.53
69731;SHT31;56996;48.138;11.538;2022-10-16T07:08:52;15.47;76.37
69731;SHT31;56996;48.138;11.538;2022-10-16T07:11:21;15.53;76.38
69731;SHT31;56996;48.138;11.538;2022-10-16T07:13:50;15.59;76.36
69731;SHT31;56996;48.138;11.538;2022-10-16T07:16:31;15.63;76.29
69731;SHT31;56996;48.138;11.538;2022-10-16T07:18:59;15.65;76.15
69731;SHT31;56996;48.138;11.538;2022-10-16T07:21:29;15.67;76.10
69731;SHT31;56996;48.138;11.538;2022-10-16T07:24:02;15.69;76.14
69731;SHT31;56996;48.138;11.538;2022-10-16T07:26:34;15.73;75.91
69731;SHT31;56996;48.138;11.538;2022-10-16T07:29:02;15.78;75.66
69731;SHT31;56996;48.138;11.538;2022-10-16T07:31:30;15.84;75.62
69731;SHT31;56996;48.138;11.538;2022-10-16T07:33:57;15.94;75.17
69731;SHT31;56996;48.138;11.538;2022-10-16T07:36:26;16.00;74.84
69731;SHT31;56996;48.138;11.538;2022-10-16T07:38:53;16.03;74.93
69731;SHT31;56996;48.138;11.538;2022-10-16T07:41:25;16.07;74.89
69731;SHT31;56996;48.138;11.538;2022-10-16T07:43:53;16.12;74.68
69731;SHT31;56996;48.138;11.538;2022-10-16T07:46:21;16.16;74.26
69731;SHT31;56996;48.138;11.538;2022-10-16T07:48:50;16.18;74.35
69731;SHT31;56996;48.138;11.538;2022-10-16T07:51:17;16.18;74.21
69731;SHT31;56996;48.138;11.538;2022-10-16T07:53:46;16.22;74.14
69731;SHT31;56996;48.138;11.538;2022-10-16T07:56:13;16.26;73.93
69731;SHT31;56996;48.138;11.538;2022-10-16T07:58:41;16.31;73.49
69731;SHT31;56996;48.138;11.538;2022-10-16T08:01:09;16.35;73.32
69731;SHT31;56996;48.138;11.538;2022-10-16T08:03:46;16.44;73.14
69731;SHT31;56996;48.138;11.538;2022-10-16T08:06:16;16.54;72.77
69731;SHT31;56996;48.138;11.538;2022-10-16T08:08:49;16.66;72.40
69731;SHT31;56996;48.138;11.538;2022-10-16T08:11:15;16.78;71.90
69731;SHT31;56996;48.138;11.538;2022-10-16T08:13:42;16.89;71.59
69731;SHT31;56996;48.138;11.538;2022-10-16T08:16:09;17.01;71.40
69731;SHT31;56996;48.138;11.538;2022-10-16T08:18:40;17.11;71.10
69731;SHT31;56996;48.138;11.538;2022-10-16T08:21:08;17.22;70.67
69731;SHT31;56996;48.138;11.538;2022-10-16T08:23:46;17.30;70.17
69731;SHT31;56996;48.138;11.538;2022-10-16T08:26:20;17.39;69.42
69731;SHT31;56996;48.138;11.538;2022-10-16T08:28:49;17.48;69.14
69731;SHT31;56996;48.138;11.538;2022-10-16T08:31:17;17.59;68.01
69731;SHT31;56996;48.138;11.538;2022-10-16T08:33:45;17.71;67.52
69731;SHT31;56996;48.138;11.538;2022-10-16T08:36:14;17.81;67.51
69731;SHT31;56996;48.138;11.538;2022-10-16T08:38:42;17.92;66.99
69731;SHT31;56996;48.138;11.538;2022-10-16T08:41:14;18.04;66.89
69731;SHT31;56996;48.138;11.538;2022-10-16T08:44:24;18.34;66.55
69731;SHT31;56996;48.138;11.538;2022-10-16T08:47:17;19.55;64.32
69731;SHT31;56996;48.138;11.538;2022-10-16T08:49:55;20.58;62.33
69731;SHT31;56996;48.138;11.538;2022-10-16T08:52:32;21.63;58.99
69731;SHT31;56996;48.138;11.538;2022-10-16T08:55:02;22.47;58.96
69731;SHT31;56996;48.138;11.538;2022-10-16T08:57:30;23.35;57.69
69731;SHT31;56996;48.138;11.538;2022-10-16T09:00:00;24.23;55.17
69731;SHT31;56996;48.138;11.538;2022-10-16T09:02:47;25.25;54.10
69731;SHT31;56996;48.138;11.538;2022-10-16T09:05:25;26.14;51.43
69731;SHT31;56996;48.138;11.538;2022-10-16T09:11:20;27.97;48.19
69731;SHT31;56996;48.138;11.538;2022-10-16T09:13:56;28.53;47.13
69731;SHT31;56996;48.138;11.538;2022-10-16T09:16:39;29.28;45.81
69731;SHT31;56996;48.138;11.538;2022-10-16T09:19:33;30.36;42.63
69731;SHT31;56996;48.138;11.538;2022-10-16T09:22:17;31.14;40.77
69731;SHT31;56996;48.138;11.538;2022-10-16T09:24:48;31.85;40.08
69731;SHT31;56996;48.138;11.538;2022-10-16T09:27:15;32.52;38.82
69731;SHT31;56996;48.138;11.538;2022-10-16T09:29:42;33.18;37.92
69731;SHT31;56996;48.138;11.538;2022-10-16T09:32:18;33.67;36.99
69731;SHT31;56996;48.138;11.538;2022-10-16T09:34:48;33.98;35.65
69731;SHT31;56996;48.138;11.538;2022-10-16T09:37:18;34.37;34.90
69731;SHT31;56996;48.138;11.538;2022-10-16T09:39:47;34.76;33.93
69731;SHT31;56996;48.138;11.538;2022-10-16T09:42:19;35.14;33.45
69731;SHT31;56996;48.138;11.538;2022-10-16T09:44:52;35.61;32.54
69731;SHT31;56996;48.138;11.538;2022-10-16T09:47:23;36.00;31.83
69731;SHT31;56996;48.138;11.538;2022-10-16T09:50:03;36.27;31.24
69731;SHT31;56996;48.138;11.538;2022-10-16T09:53:05;36.55;30.56
69731;SHT31;56996;48.138;11.538;2022-10-16T09:55:47;36.36;30.37
69731;SHT31;56996;48.138;11.538;2022-10-16T09:58:16;36.47;30.42
69731;SHT31;56996;48.138;11.538;2022-10-16T10:00:48;36.99;29.87
69731;SHT31;56996;48.138;11.538;2022-10-16T10:03:37;37.32;29.16
69731;SHT31;56996;48.138;11.538;2022-10-16T10:06:27;37.61;28.38
69731;SHT31;56996;48.138;11.538;2022-10-16T10:08:58;37.52;27.86
69731;SHT31;56996;48.138;11.538;2022-10-16T10:19:41;37.22;26.86
69731;SHT31;56996;48.138;11.538;2022-10-16T10:30:35;34.53;27.95
69731;SHT31;56996;48.138;11.538;2022-10-16T10:33:24;33.75;28.57
69731;SHT31;56996;48.138;11.538;2022-10-16T10:39:08;32.38;30.13
69731;SHT31;56996;48.138;11.538;2022-10-16T10:48:10;31.09;30.86
69731;SHT31;56996;48.138;11.538;2022-10-16T10:50:55;30.66;31.54
69731;SHT31;56996;48.138;11.538;2022-10-16T11:05:43;29.15;32.18
69731;SHT31;56996;48.138;11.538;2022-10-16T11:08:36;28.91;32.49
69731;SHT31;56996;48.138;11.538;2022-10-16T11:11:10;28.66;32.98
69731;SHT31;56996;48.138;11.538;2022-10-16T11:16:55;28.16;33.74
69731;SHT31;56996;48.138;11.538;2022-10-16T11:30:57;27.21;34.28
69731;SHT31;56996;48.138;11.538;2022-10-16T11:33:49;27.09;34.51
69731;SHT31;56996;48.138;11.538;2022-10-16T11:36:37;27.08;33.90
69731;SHT31;56996;48.138;11.538;2022-10-16T11:39:21;26.97;33.64
69731;SHT31;56996;48.138;11.538;2022-10-16T11:41:53;26.92;33.23
69731;SHT31;56996;48.138;11.538;2022-10-16T11:47:48;26.90;33.32
69731;SHT31;56996;48.138;11.538;2022-10-16T11:51:31;26.89;33.66
69731;SHT31;56996;48.138;11.538;2022-10-16T11:56:31;26.89;34.14
69731;SHT31;56996;48.138;11.538;2022-10-16T11:59:15;26.86;34.30
69731;SHT31;56996;48.138;11.538;2022-10-16T12:02:14;26.81;34.45
69731;SHT31;56996;48.138;11.538;2022-10-16T12:08:01;26.66;34.20
69731;SHT31;56996;48.138;11.538;2022-10-16T12:10:35;26.58;34.81
69731;SHT31;56996;48.138;11.538;2022-10-16T12:13:04;26.61;34.69
69731;SHT31;56996;48.138;11.538;2022-10-16T12:18:39;26.50;34.30
69731;SHT31;56996;48.138;11.538;2022-10-16T12:21:07;26.48;34.68
69731;SHT31;56996;48.138;11.538;2022-10-16T12:23:36;26.53;34.90
69731;SHT31;56996;48.138;11.538;2022-10-16T12:26:12;26.50;35.13
69731;SHT31;56996;48.138;11.538;2022-10-16T12:28:39;26.41;35.46
69731;SHT31;56996;48.138;11.538;2022-10-16T12:31:07;26.37;35.77
69731;SHT31;56996;48.138;11.538;2022-10-16T12:33:42;26.37;35.54
69731;SHT31;56996;48.138;11.538;2022-10-16T12:36:29;26.44;35.52
69731;SHT31;56996;48.138;11.538;2022-10-16T12:38:58;26.50;35.26
69731;SHT31;56996;48.138;11.538;2022-10-16T12:41:35;26.54;35.14
69731;SHT31;56996;48.138;11.538;2022-10-16T12:44:20;26.56;35.32
69731;SHT31;56996;48.138;11.538;2022-10-16T12:46:50;26.66;35.52
69731;SHT31;56996;48.138;11.538;2022-10-16T12:49:36;26.71;35.56
69731;SHT31;56996;48.138;11.538;2022-10-16T12:52:04;26.71;35.87
69731;SHT31;56996;48.138;11.538;2022-10-16T12:54:57;26.78;36.08
69731;SHT31;56996;48.138;11.538;2022-10-16T13:03:35;26.58;35.40
69731;SHT31;56996;48.138;11.538;2022-10-16T13:06:53;26.59;35.37
69731;SHT31;56996;48.138;11.538;2022-10-16T13:18:38;26.57;35.55
69731;SHT31;56996;48.138;11.538;2022-10-16T13:24:50;26.50;34.12
69731;SHT31;56996;48.138;11.538;2022-10-16T13:30:30;26.33;34.77
69731;SHT31;56996;48.138;11.538;2022-10-16T13:33:03;26.26;35.03
69731;SHT31;56996;48.138;11.538;2022-10-16T13:35:34;26.17;34.89
69731;SHT31;56996;48.138;11.538;2022-10-16T13:38:24;26.15;35.17
69731;SHT31;56996;48.138;11.538;2022-10-16T13:40:52;26.22;35.15
69731;SHT31;56996;48.138;11.538;2022-10-16T13:46:24;26.25;34.88
69731;SHT31;56996;48.138;11.538;2022-10-16T13:51:38;26.12;34.91
69731;SHT31;56996;48.138;11.538;2022-10-16T13:54:04;25.97;34.40
69731;SHT31;56996;48.138;11.538;2022-10-16T13:56:32;25.87;34.63
69731;SHT31;56996;48.138;11.538;2022-10-16T13:59:00;25.78;34.59
69731;SHT31;56996;48.138;11.538;2022-10-16T14:02:16;25.73;35.13
69731;SHT31;56996;48.138;11.538;2022-10-16T14:04:58;25.67;34.75
69731;SHT31;56996;48.138;11.538;2022-10-16T14:07:26;25.63;34.73
69731;SHT31;56996;48.138;11.538;2022-10-16T14:09:59;25.60;34.81
69731;SHT31;56996;48.138;11.538;2022-10-16T14:12:31;25.54;34.80
69731;SHT31;56996;48.138;11.538;2022-10-16T14:14:58;25.50;35.00
69731;SHT31;56996;48.138;11.538;2022-10-16T14:17:35;25.51;35.42
69731;SHT31;56996;48.138;11.538;2022-10-16T14:20:04;25.45;34.77
69731;SHT31;56996;48.138;11.538;2022-10-16T14:22:36;25.38;35.21
69731;SHT31;56996;48.138;11.538;2022-10-16T14:27:55;25.35;35.38
69731;SHT31;56996;48.138;11.538;2022-10-16T14:30:34;25.26;35.69
69731;SHT31;56996;48.138;11.538;2022-10-16T14:33:06;25.22;35.72
69731;SHT31;56996;48.138;11.538;2022-10-16T14:36:03;25.13;35.84
69731;SHT31;56996;48.138;11.538;2022-10-16T14:38:47;25.04;36.12
69731;SHT31;56996;48.138;11.538;2022-10-16T14:41:23;24.99;36.22
69731;SHT31;56996;48.138;11.538;2022-10-16T14:43:54;24.95;36.43
69731;SHT31;56996;48.138;11.538;2022-10-16T14:46:28;24.96;36.87
69731;SHT31;56996;48.138;11.538;2022-10-16T14:49:13;24.93;37.07
69731;SHT31;56996;48.138;11.538;2022-10-16T14:51:46;24.79;37.15
69731;SHT31;56996;48.138;11.538;2022-10-16T14:54:13;24.70;37.77
69731;SHT31;56996;48.138;11.538;2022-10-16T14:56:45;24.64;38.13
69731;SHT31;56996;48.138;11.538;2022-10-16T15:01:57;24.40;38.30
69731;SHT31;56996;48.138;11.538;2022-10-16T15:04:24;24.26;38.31
69731;SHT31;56996;48.138;11.538;2022-10-16T15:06:50;24.19;39.00
69731;SHT31;56996;48.138;11.538;2022-10-16T15:09:17;24.15;39.52
69731;SHT31;56996;48.138;11.538;2022-10-16T15:11:43;24.04;38.62
69731;SHT31;56996;48.138;11.538;2022-10-16T15:14:13;23.96;37.99
69731;SHT31;56996;48.138;11.538;2022-10-16T15:16:45;23.91;38.21
69731;SHT31;56996;48.138;11.538;2022-10-16T15:19:12;23.86;38.85
69731;SHT31;56996;48.138;11.538;2022-10-16T15:21:38;23.81;38.85
69731;SHT31;56996;48.138;11.538;2022-10-16T15:24:08;23.74;38.49
69731;SHT31;56996;48.138;11.538;2022-10-16T15:26:44;23.69;38.69
69731;SHT31;56996;48.138;11.538;2022-10-16T15:29:12;23.64;39.09
69731;SHT31;56996;48.138;11.538;2022-10-16T15:31:39;23.60;39.56
69731;SHT31;56996;48.138;11.538;2022-10-16T15:34:09;23.58;40.11
69731;SHT31;56996;48.138;11.538;2022-10-16T15:36:37;23.52;41.02
69731;SHT31;56996;48.138;11.538;2022-10-16T15:39:15;23.45;41.69
69731;SHT31;56996;48.138;11.538;2022-10-16T15:41:45;23.39;42.10
69731;SHT31;56996;48.138;11.538;2022-10-16T15:44:20;23.33;42.40
69731;SHT31;56996;48.138;11.538;2022-10-16T15:46:54;23.27;42.76
69731;SHT31;56996;48.138;11.538;2022-10-16T15:49:21;23.20;43.22
69731;SHT31;56996;48.138;11.538;2022-10-16T15:51:47;23.14;43.62
69731;SHT31;56996;48.138;11.538;2022-10-16T15:54:14;23.08;43.93
69731;SHT31;56996;48.138;11.538;2022-10-16T15:56:41;23.02;44.22
69731;SHT31;56996;48.138;11.538;2022-10-16T15:59:08;22.96;44.39
69731;SHT31;56996;48.138;11.538;2022-10-16T16:01:35;22.90;44.71
69731;SHT31;56996;48.138;11.538;2022-10-16T16:04:02;22.84;44.96
69731;SHT31;56996;48.138;11.538;2022-10-16T16:06:40;22.79;45.25
69731;SHT31;56996;48.138;11.538;2022-10-16T16:09:12;22.72;45.65
69731;SHT31;56996;48.138;11.538;2022-10-16T16:11:40;22.65;45.98
69731;SHT31;56996;48.138;11.538;2022-10-16T16:14:07;22.57;46.12
69731;SHT31;56996;48.138;11.538;2022-10-16T16:16:39;22.48;46.51
69731;SHT31;56996;48.138;11.538;2022-10-16T16:19:05;22.41;46.60
69731;SHT31;56996;48.138;11.538;2022-10-16T16:21:37;22.33;46.90
69731;SHT31;56996;48.138;11.538;2022-10-16T16:24:04;22.29;46.97
69731;SHT31;56996;48.138;11.538;2022-10-16T16:26:35;22.23;47.10
69731;SHT31;56996;48.138;11.538;2022-10-16T16:29:05;22.16;47.36
69731;SHT31;56996;48.138;11.538;2022-10-16T16:31:33;22.09;47.49
69731;SHT31;56996;48.138;11.538;2022-10-16T16:34:01;22.03;47.67
69731;SHT31;56996;48.138;11.538;2022-10-16T16:36:28;21.97;47.86
69731;SHT31;56996;48.138;11.538;2022-10-16T16:38:55;21.92;48.08
69731;SHT31;56996;48.138;11.538;2022-10-16T16:41:24;21.86;48.42
69731;SHT31;56996;48.138;11.538;2022-10-16T16:43:54;21.80;48.46
69731;SHT31;56996;48.138;11.538;2022-10-16T16:46:21;21.75;48.85
69731;SHT31;56996;48.138;11.538;2022-10-16T16:48:49;21.69;48.85
69731;SHT31;56996;48.138;11.538;2022-10-16T16:51:21;21.64;49.05
69731;SHT31;56996;48.138;11.538;2022-10-16T16:53:49;21.61;49.21
69731;SHT31;56996;48.138;11.538;2022-10-16T16:56:19;21.55;49.47
69731;SHT31;56996;48.138;11.538;2022-10-16T16:58:47;21.51;49.74
69731;SHT31;56996;48.138;11.538;2022-10-16T17:01:16;21.45;49.87
69731;SHT31;56996;48.138;11.538;2022-10-16T17:03:47;21.43;50.03
69731;SHT31;56996;48.138;11.538;2022-10-16T17:06:19;21.40;50.26
69731;SHT31;56996;48.138;11.538;2022-10-16T17:08:48;21.36;50.53
69731;SHT31;56996;48.138;11.538;2022-10-16T17:11:16;21.31;50.68
69731;SHT31;56996;48.138;11.538;2022-10-16T17:13:47;21.28;50.89
69731;SHT31;56996;48.138;11.538;2022-10-16T17:16:32;21.22;51.20
69731;SHT31;56996;48.138;11.538;2022-10-16T17:19:03;21.17;51.33
69731;SHT31;56996;48.138;11.538;2022-10-16T17:21:33;21.14;51.64
69731;SHT31;56996;48.138;11.538;2022-10-16T17:24:01;21.10;51.91
69731;SHT31;56996;48.138;11.538;2022-10-16T17:26:28;21.05;52.37
69731;SHT31;56996;48.138;11.538;2022-10-16T17:28:56;20.99;52.30
69731;SHT31;56996;48.138;11.538;2022-10-16T17:31:28;20.93;51.97
69731;SHT31;56996;48.138;11.538;2022-10-16T17:33:58;20.87;52.34
69731;SHT31;56996;48.138;11.538;2022-10-16T17:36:26;20.80;52.55
69731;SHT31;56996;48.138;11.538;2022-10-16T17:38:58;20.75;53.12
69731;SHT31;56996;48.138;11.538;2022-10-16T17:41:29;20.69;53.33
69731;SHT31;56996;48.138;11.538;2022-10-16T17:43:57;20.64;53.47